KIPL/IPL METAR and TAF weather

Enter ICAO airport designator
Station Type Date Time Source
KIPL METAR 2023/02/05 23:53 UTC NOAA

KIPL 052353Z AUTO 29014G23KT 10SM CLR 23/M01 A2999 RMK AO2 SLP156 T02331006 10244 20217 56014


Station Type Date Time Source
KIPL Decoded METAR 2023/02/05 23:53 UTC NOAA

Imperial, Imperial County Airport, CA, United States (KIPL) 32-50-03N 115-34-43W -15M
Feb 05, 2023 - 06:53 PM EST / 2023.02.05 2353 UTC
Wind: from the WNW (290 degrees) at 16 MPH (14 KT) gusting to 26 MPH (23 KT):0
Visibility: 10 mile(s):0
Sky conditions: clear
Temperature: 73.9 F (23.3 C)
Dew Point: 30.9 F (-0.6 C)
Relative Humidity: 20%
Pressure (altimeter): 29.99 in. Hg (1015 hPa)
Pressure tendency: 0.04 inches (1.4 hPa) lower than three hours ago
ob: KIPL 052353Z AUTO 29014G23KT 10SM CLR 23/M01 A2999 RMK AO2 SLP156 T02331006 10244 20217 56014
cycle: 0

Station Type Date Time Source
KIPL TAF 2023/02/05 18:39 UTC NOAA

TAF KIPL 051736Z 0518/0618 25007KT P6SM SKC
FM052000 27014G24KT P6SM FEW250
FM061400 30011G17KT P6SM FEW200
FM061700 33013G26KT P6SM SKC

Example: see airport list